Time;durP1;ratioP1;P1;durP2;ratioP2;P2;SDS_P1;SDS_P2;PMS_P1;PMS_P2;Temp;Humidity;BMP_temperature;BMP_pressure;BME280_temperature;BME280_humidity;BME280_pressure;Samples;Min_cycle;Max_cycle;Signal;HPM_P1;HPM_P2
2021/10/31 00:01:18;;;;;;;8.13;5.10;;;14.70;78.70;;;;;;4948104;29;20196;-74
2021/10/31 00:03:43;;;;;;;11.20;4.80;;;14.70;79.00;;;;;;4953230;28;20230;-73
2021/10/31 00:06:09;;;;;;;8.87;3.60;;;14.60;79.50;;;;;;4955269;29;20982;-73
2021/10/31 00:08:35;;;;;;;4.43;2.53;;;14.60;80.50;;;;;;4954966;29;20188;-74
2021/10/31 00:11:02;;;;;;;3.73;2.50;;;14.60;80.90;;;;;;4946528;29;20195;-73
2021/10/31 00:13:28;;;;;;;4.20;2.80;;;14.70;82.10;;;;;;4951139;28;20203;-73
2021/10/31 00:15:54;;;;;;;2.40;1.80;;;14.70;82.40;;;;;;4950857;28;20538;-74
2021/10/31 00:18:20;;;;;;;3.40;2.07;;;14.70;82.20;;;;;;4953885;28;20962;-71
2021/10/31 00:20:46;;;;;;;4.73;2.53;;;14.70;82.40;;;;;;4954199;29;20467;-74
2021/10/31 00:23:12;;;;;;;4.07;2.83;;;14.70;82.20;;;;;;4953259;29;20199;-74
2021/10/31 00:25:38;;;;;;;3.30;2.40;;;14.60;83.10;;;;;;4952175;28;20290;-73
2021/10/31 00:28:04;;;;;;;4.60;2.80;;;14.60;83.40;;;;;;4953109;28;20431;-72
2021/10/31 00:30:30;;;;;;;4.23;2.70;;;14.60;82.80;;;;;;4953427;29;20450;-75
2021/10/31 00:32:55;;;;;;;5.73;2.87;;;14.50;83.00;;;;;;4953424;28;20194;-74
2021/10/31 00:35:22;;;;;;;2.67;2.40;;;14.50;83.40;;;;;;4952129;28;20535;-75
2021/10/31 00:37:48;;;;;;;5.10;2.80;;;14.40;83.80;;;;;;4952161;28;20624;-75
2021/10/31 00:40:13;;;;;;;3.30;2.57;;;14.40;84.30;;;;;;4953658;29;20530;-73
2021/10/31 00:42:40;;;;;;;5.13;2.40;;;14.40;84.70;;;;;;4953081;29;20490;-76
2021/10/31 00:45:06;;;;;;;3.27;2.27;;;14.40;85.30;;;;;;4951659;29;20451;-74
2021/10/31 00:47:32;;;;;;;8.27;2.73;;;14.40;85.30;;;;;;4952875;29;20431;-74
2021/10/31 00:49:59;;;;;;;3.20;2.20;;;14.40;85.30;;;;;;4951494;29;20522;-75
2021/10/31 00:52:27;;;;;;;3.50;2.40;;;14.40;85.20;;;;;;4951047;28;20236;-71
2021/10/31 00:54:55;;;;;;;2.33;2.20;;;14.30;85.30;;;;;;4950296;28;20463;-73
2021/10/31 00:57:21;;;;;;;2.63;2.23;;;14.30;85.20;;;;;;4952394;28;20470;-73
2021/10/31 00:59:47;;;;;;;3.87;2.33;;;14.30;85.30;;;;;;4951118;29;20583;-72
2021/10/31 01:02:14;;;;;;;3.20;2.30;;;14.30;85.60;;;;;;4952807;28;20522;-73
2021/10/31 01:04:45;;;;;;;4.30;2.50;;;14.20;85.60;;;;;;4951224;28;20542;-73
2021/10/31 01:07:33;;;;;;;4.30;3.00;;;14.20;85.70;;;;;;4953001;28;20816;-74
2021/10/31 01:10:05;;;;;;;3.50;2.60;;;14.10;85.90;;;;;;4948707;29;20424;-72
2021/10/31 01:12:38;;;;;;;3.13;2.20;;;14.00;86.30;;;;;;4952105;28;20428;-73
2021/10/31 01:15:09;;;;;;;8.40;3.17;;;13.90;86.80;;;;;;4950722;28;20455;-74
2021/10/31 01:18:06;;;;;;;3.10;2.10;;;13.90;86.80;;;;;;4956424;29;20482;-72
2021/10/31 01:20:53;;;;;;;5.20;3.13;;;13.80;86.90;;;;;;4953029;28;20424;-74
2021/10/31 01:23:51;;;;;;;2.40;2.00;;;13.80;87.00;;;;;;4949025;28;20423;-75
2021/10/31 01:26:32;;;;;;;6.33;2.77;;;13.70;87.40;;;;;;4950055;29;20459;-74
2021/10/31 01:29:10;;;;;;;2.97;2.13;;;13.60;87.80;;;;;;4952381;29;20915;-73
2021/10/31 01:31:39;;;;;;;2.97;2.00;;;13.50;88.10;;;;;;4952296;28;20427;-75
2021/10/31 01:34:33;;;;;;;2.70;2.43;;;13.50;88.30;;;;;;4951232;28;20570;-73
2021/10/31 01:37:18;;;;;;;5.83;2.93;;;13.40;88.30;;;;;;4949391;28;20838;-74
2021/10/31 01:39:58;;;;;;;3.20;2.37;;;13.40;88.30;;;;;;4945262;29;20428;-73
2021/10/31 01:42:45;;;;;;;4.37;2.70;;;13.40;88.00;;;;;;4946845;29;20528;-73
2021/10/31 01:45:31;;;;;;;4.30;2.73;;;13.40;88.30;;;;;;4950814;29;20557;-74
2021/10/31 01:48:05;;;;;;;4.97;2.70;;;13.30;88.40;;;;;;4947252;29;20435;-76
2021/10/31 01:50:43;;;;;;;6.73;2.53;;;13.20;89.00;;;;;;4949228;29;20431;-73
2021/10/31 01:53:21;;;;;;;4.13;2.50;;;13.30;88.40;;;;;;4951525;29;20426;-74
2021/10/31 01:55:54;;;;;;;4.83;2.83;;;13.20;88.10;;;;;;4951023;29;20630;-73
2021/10/31 01:58:22;;;;;;;4.03;2.83;;;13.20;88.10;;;;;;4949327;29;20428;-74
2021/10/31 02:00:49;;;;;;;4.17;2.43;;;13.10;88.90;;;;;;4952317;28;20451;-73
2021/10/31 02:03:20;;;;;;;5.47;2.83;;;13.00;89.20;;;;;;4952043;29;20431;-74
2021/10/31 02:05:49;;;;;;;5.43;3.10;;;13.00;89.30;;;;;;4951419;29;20459;-72
2021/10/31 02:08:17;;;;;;;3.70;2.80;;;12.90;89.50;;;;;;4951649;29;20439;-74
2021/10/31 02:10:46;;;;;;;5.57;2.93;;;12.90;89.70;;;;;;4954716;29;20847;-71
2021/10/31 02:13:14;;;;;;;4.53;2.73;;;13.00;89.60;;;;;;4955653;28;20434;-72
2021/10/31 02:15:43;;;;;;;3.30;2.43;;;12.90;89.70;;;;;;4951731;28;21291;-70
2021/10/31 02:18:11;;;;;;;3.50;2.63;;;12.80;89.90;;;;;;4950673;29;20954;-73
2021/10/31 02:20:40;;;;;;;8.63;3.33;;;12.70;90.20;;;;;;4956172;29;20513;-73
2021/10/31 02:23:06;;;;;;;5.27;3.30;;;12.60;90.50;;;;;;4955669;28;20459;-71
2021/10/31 02:25:33;;;;;;;3.67;2.60;;;12.50;90.70;;;;;;4952681;28;20450;-71
2021/10/31 02:27:59;;;;;;;3.43;3.00;;;12.40;90.90;;;;;;4952056;28;20432;-70
2021/10/31 02:30:25;;;;;;;5.50;2.57;;;12.40;91.20;;;;;;4948292;29;20428;-74
2021/10/31 02:32:51;;;;;;;3.63;2.50;;;12.30;91.30;;;;;;4954436;28;20463;-72
2021/10/31 02:35:19;;;;;;;7.20;2.60;;;12.30;91.40;;;;;;4969018;28;20447;-73
2021/10/31 02:37:45;;;;;;;3.63;2.80;;;12.40;91.40;;;;;;4969428;28;20474;-72
2021/10/31 02:40:14;;;;;;;3.03;2.30;;;12.40;91.40;;;;;;4953815;29;20511;-73
2021/10/31 02:42:41;;;;;;;3.07;2.27;;;12.30;91.30;;;;;;4952863;29;20529;-74
2021/10/31 02:45:08;;;;;;;3.63;2.60;;;12.20;91.60;;;;;;4948556;29;20810;-73
2021/10/31 02:47:45;;;;;;;2.40;2.20;;;12.20;91.80;;;;;;4951961;28;20591;-74
2021/10/31 02:50:16;;;;;;;8.23;3.20;;;12.10;91.90;;;;;;4955398;28;20422;-73
2021/10/31 02:53:18;;;;;;;5.07;2.50;;;12.00;92.00;;;;;;4955679;29;20786;-72
2021/10/31 02:56:15;;;;;;;4.30;2.73;;;12.00;92.30;;;;;;4949150;29;20466;-73
2021/10/31 02:58:59;;;;;;;4.43;3.07;;;12.00;92.30;;;;;;4944964;29;20432;-74
2021/10/31 03:01:28;;;;;;;4.13;2.70;;;12.00;92.30;;;;;;4956964;28;21101;-74
2021/10/31 03:03:55;;;;;;;3.57;2.80;;;12.00;92.60;;;;;;4957417;28;21089;-72
2021/10/31 03:06:22;;;;;;;4.37;3.13;;;11.90;92.60;;;;;;4956957;28;20431;-72
2021/10/31 03:08:48;;;;;;;5.20;3.10;;;11.90;92.70;;;;;;4957934;29;20438;-72
2021/10/31 03:11:14;;;;;;;4.47;2.77;;;11.90;92.70;;;;;;4955749;29;20423;-72
2021/10/31 03:13:40;;;;;;;7.97;3.17;;;11.90;92.50;;;;;;4956383;28;20336;-74
2021/10/31 03:16:07;;;;;;;5.50;3.20;;;12.00;92.20;;;;;;4956863;28;20494;-73
2021/10/31 03:18:34;;;;;;;5.33;2.97;;;11.90;92.30;;;;;;4957809;28;20450;-72
2021/10/31 03:21:00;;;;;;;4.67;2.87;;;11.80;92.60;;;;;;4956274;28;20419;-73
2021/10/31 03:23:26;;;;;;;6.00;3.60;;;11.80;92.70;;;;;;4954802;28;20490;-72
2021/10/31 03:25:51;;;;;;;6.57;3.60;;;11.90;92.70;;;;;;4952051;29;20435;-73
2021/10/31 03:28:17;;;;;;;5.10;3.10;;;11.90;92.70;;;;;;4955405;29;20498;-73
2021/10/31 03:30:43;;;;;;;4.30;2.77;;;11.80;92.70;;;;;;4956656;28;20868;-73
2021/10/31 03:33:09;;;;;;;4.80;2.70;;;11.90;92.70;;;;;;4956279;28;21049;-72
2021/10/31 03:35:35;;;;;;;3.40;2.83;;;11.90;92.70;;;;;;4955392;28;20698;-74
2021/10/31 03:38:01;;;;;;;5.57;3.13;;;11.80;92.70;;;;;;4955553;29;20194;-73
2021/10/31 03:40:26;;;;;;;5.73;3.70;;;11.80;92.80;;;;;;4954467;29;20430;-73
2021/10/31 03:42:52;;;;;;;4.77;3.53;;;11.70;92.80;;;;;;4953793;29;20419;-72
2021/10/31 03:45:19;;;;;;;4.13;3.10;;;11.60;92.90;;;;;;4952681;29;20342;-73
2021/10/31 03:47:48;;;;;;;5.83;3.90;;;11.70;93.00;;;;;;4954391;29;20310;-72
2021/10/31 03:50:16;;;;;;;4.73;3.57;;;11.70;93.00;;;;;;4954602;28;20518;-75
2021/10/31 03:52:43;;;;;;;5.80;3.20;;;11.60;93.00;;;;;;4954454;29;20439;-76
2021/10/31 03:55:09;;;;;;;5.67;3.93;;;11.60;93.00;;;;;;4953081;28;21005;-72
2021/10/31 03:57:36;;;;;;;9.50;3.77;;;11.50;93.10;;;;;;4954618;28;20467;-75
2021/10/31 04:00:10;;;;;;;8.13;3.27;;;11.50;93.30;;;;;;4950513;28;20682;-73
2021/10/31 04:02:38;;;;;;;4.90;3.67;;;11.50;93.50;;;;;;4954003;28;20419;-73
2021/10/31 04:05:08;;;;;;;8.00;4.00;;;11.50;93.60;;;;;;4949981;28;21261;-71
2021/10/31 04:07:34;;;;;;;3.90;3.30;;;11.50;93.70;;;;;;4952780;29;20424;-73
2021/10/31 04:10:01;;;;;;;4.33;3.13;;;11.50;93.80;;;;;;4954774;28;20431;-72
2021/10/31 04:12:26;;;;;;;6.50;3.23;;;11.40;94.00;;;;;;4952137;29;20431;-73
2021/10/31 04:14:52;;;;;;;7.33;3.50;;;11.30;94.20;;;;;;4945299;28;20439;-74
2021/10/31 04:17:18;;;;;;;5.23;3.30;;;11.30;94.30;;;;;;4953772;28;20573;-76
2021/10/31 04:19:43;;;;;;;7.63;4.33;;;11.40;94.20;;;;;;4954222;29;20180;-74
2021/10/31 04:22:09;;;;;;;7.30;3.23;;;11.30;94.20;;;;;;4953944;29;20188;-73
2021/10/31 04:24:35;;;;;;;6.40;3.30;;;11.30;94.20;;;;;;4953387;28;20199;-74
2021/10/31 04:27:02;;;;;;;6.23;4.17;;;11.10;94.40;;;;;;4953500;29;20252;-75
2021/10/31 04:29:28;;;;;;;10.73;5.30;;;11.10;94.60;;;;;;4953515;28;20184;-73
2021/10/31 04:31:54;;;;;;;11.60;5.43;;;11.00;94.90;;;;;;4952812;29;20546;-74
2021/10/31 04:34:20;;;;;;;100.17;33.77;;;11.00;95.20;;;;;;4952910;28;20241;-74
2021/10/31 04:36:47;;;;;;;54.57;21.07;;;11.00;95.30;;;;;;4953378;28;20478;-73
2021/10/31 04:39:13;;;;;;;25.80;10.07;;;11.00;95.30;;;;;;4953863;28;20423;-74
2021/10/31 04:41:42;;;;;;;13.87;6.80;;;11.00;95.40;;;;;;4953080;28;20474;-75
2021/10/31 04:44:07;;;;;;;9.40;4.87;;;11.00;95.40;;;;;;4952135;28;20582;-74
2021/10/31 04:46:33;;;;;;;5.63;3.37;;;11.00;95.20;;;;;;4952938;28;20551;-76
2021/10/31 04:48:59;;;;;;;8.43;4.60;;;11.10;94.90;;;;;;4955546;28;20194;-73
2021/10/31 04:51:24;;;;;;;6.53;3.50;;;11.10;94.70;;;;;;4952624;29;20194;-74
2021/10/31 04:53:50;;;;;;;6.67;3.27;;;11.00;94.80;;;;;;4951906;28;20203;-74
2021/10/31 04:56:17;;;;;;;4.60;2.87;;;11.00;94.80;;;;;;4949624;29;20306;-75
2021/10/31 04:58:42;;;;;;;8.43;3.23;;;11.10;94.80;;;;;;4953274;29;20247;-73
2021/10/31 05:01:08;;;;;;;5.20;3.40;;;11.10;94.70;;;;;;4952726;29;20470;-74
2021/10/31 05:03:34;;;;;;;5.67;3.27;;;11.10;94.70;;;;;;4955842;28;20518;-74
2021/10/31 05:06:00;;;;;;;5.17;3.37;;;11.10;94.80;;;;;;4954097;29;20215;-74
2021/10/31 05:08:26;;;;;;;5.40;3.60;;;11.10;94.80;;;;;;4954446;28;20651;-74
2021/10/31 05:10:53;;;;;;;5.67;3.10;;;11.10;94.90;;;;;;4956746;28;20183;-74
2021/10/31 05:13:19;;;;;;;5.70;4.07;;;11.10;94.90;;;;;;4954467;28;20442;-74
2021/10/31 05:15:45;;;;;;;6.27;4.20;;;11.20;95.00;;;;;;4950272;28;20467;-73
2021/10/31 05:18:11;;;;;;;6.80;3.70;;;11.20;95.00;;;;;;4945316;29;20556;-73
2021/10/31 05:20:38;;;;;;;6.80;3.83;;;11.20;95.00;;;;;;4952424;29;20432;-73
2021/10/31 05:23:04;;;;;;;8.17;4.50;;;11.20;95.10;;;;;;4954514;28;20740;-72
2021/10/31 05:25:29;;;;;;;6.20;3.70;;;11.20;95.10;;;;;;4951161;28;20463;-73
2021/10/31 05:27:55;;;;;;;6.77;4.00;;;11.20;95.10;;;;;;4951285;28;20682;-73
2021/10/31 05:30:21;;;;;;;7.20;3.90;;;11.20;95.00;;;;;;4952186;29;20287;-73
2021/10/31 05:32:49;;;;;;;6.70;4.03;;;11.20;94.90;;;;;;4952714;28;20274;-76
2021/10/31 05:35:14;;;;;;;9.33;4.33;;;11.20;94.80;;;;;;4951543;28;20813;-72
2021/10/31 05:37:42;;;;;;;6.40;4.37;;;11.20;94.80;;;;;;4952551;28;20467;-72
2021/10/31 05:40:11;;;;;;;9.90;4.33;;;11.20;94.80;;;;;;4952131;29;20560;-74
2021/10/31 05:42:38;;;;;;;7.10;4.40;;;11.10;95.00;;;;;;4952296;28;20420;-73
2021/10/31 05:45:07;;;;;;;7.07;4.50;;;11.10;95.30;;;;;;4951593;29;20538;-74
2021/10/31 05:47:37;;;;;;;8.10;4.50;;;11.00;95.30;;;;;;4953028;29;20486;-72
2021/10/31 05:50:05;;;;;;;12.07;4.57;;;11.00;95.40;;;;;;4952729;29;20439;-73
2021/10/31 05:52:31;;;;;;;6.87;4.30;;;11.00;95.40;;;;;;4944533;29;20436;-74
2021/10/31 05:54:59;;;;;;;9.37;5.33;;;11.00;95.50;;;;;;4951718;28;20455;-73
2021/10/31 05:57:26;;;;;;;11.50;5.10;;;10.90;95.60;;;;;;4952517;28;20204;-74
2021/10/31 05:59:51;;;;;;;9.10;5.20;;;11.00;95.70;;;;;;4951706;29;20538;-75
2021/10/31 06:02:17;;;;;;;9.37;4.83;;;11.00;95.70;;;;;;4953355;28;21006;-74
2021/10/31 06:04:45;;;;;;;7.40;4.37;;;11.00;95.70;;;;;;4953584;28;20200;-75
2021/10/31 06:07:11;;;;;;;7.70;5.00;;;11.00;95.80;;;;;;4952459;28;20691;-73
2021/10/31 06:09:37;;;;;;;8.40;5.40;;;11.00;95.70;;;;;;4953139;29;20851;-74
2021/10/31 06:12:07;;;;;;;7.33;5.13;;;11.00;95.80;;;;;;4953326;29;20454;-75
2021/10/31 06:14:34;;;;;;;10.20;5.10;;;11.00;95.90;;;;;;4951001;28;20208;-74
2021/10/31 06:17:04;;;;;;;7.63;5.47;;;11.00;96.00;;;;;;4951932;28;20475;-73
2021/10/31 06:19:31;;;;;;;7.43;4.60;;;11.10;95.80;;;;;;4953291;29;20551;-72
2021/10/31 06:21:57;;;;;;;10.30;5.73;;;11.10;95.70;;;;;;4952844;29;20430;-75
2021/10/31 06:24:23;;;;;;;9.00;5.67;;;11.10;95.70;;;;;;4953195;28;21171;-72
2021/10/31 06:26:49;;;;;;;9.30;5.77;;;11.10;95.60;;;;;;4956800;29;20522;-75
2021/10/31 06:29:15;;;;;;;9.43;4.90;;;11.10;95.50;;;;;;4956027;29;20199;-72
2021/10/31 06:31:41;;;;;;;8.37;4.93;;;11.10;95.50;;;;;;4956440;29;20270;-73
2021/10/31 06:34:07;;;;;;;7.63;5.17;;;11.10;95.60;;;;;;4955032;28;20451;-74
2021/10/31 06:36:32;;;;;;;8.00;4.43;;;11.20;95.60;;;;;;4955414;29;20471;-75
2021/10/31 06:38:58;;;;;;;7.43;4.70;;;11.20;95.60;;;;;;4955630;29;20227;-74
2021/10/31 06:41:24;;;;;;;14.30;8.97;;;11.20;95.40;;;;;;4954281;28;20274;-75
2021/10/31 06:43:50;;;;;;;14.13;8.77;;;11.10;95.10;;;;;;4954598;29;20223;-76
2021/10/31 06:46:17;;;;;;;11.83;7.43;;;11.10;95.10;;;;;;4953856;28;20192;-73
2021/10/31 06:48:43;;;;;;;12.70;8.70;;;11.20;94.90;;;;;;4951179;29;20779;-75
2021/10/31 06:51:09;;;;;;;14.83;9.17;;;11.20;94.50;;;;;;4956034;29;20431;-75
2021/10/31 06:53:35;;;;;;;11.97;7.53;;;11.10;94.40;;;;;;4955429;28;20354;-73
2021/10/31 06:56:01;;;;;;;18.70;8.70;;;11.10;94.60;;;;;;4954838;28;21057;-75
2021/10/31 06:58:27;;;;;;;12.10;7.77;;;11.20;94.70;;;;;;4956438;28;20192;-74
2021/10/31 07:00:53;;;;;;;13.10;8.27;;;11.20;94.60;;;;;;4960385;28;20926;-74
2021/10/31 07:03:19;;;;;;;12.77;8.17;;;11.30;94.40;;;;;;4949881;28;20435;-73
2021/10/31 07:05:45;;;;;;;11.03;7.80;;;11.30;94.30;;;;;;4954237;28;20535;-71
2021/10/31 07:08:11;;;;;;;12.57;8.57;;;11.40;94.10;;;;;;4949691;28;20564;-73
2021/10/31 07:10:38;;;;;;;14.47;8.97;;;11.40;94.10;;;;;;4956188;29;20447;-74
2021/10/31 07:13:04;;;;;;;15.80;9.93;;;11.30;93.90;;;;;;4955100;28;21125;-73
2021/10/31 07:15:30;;;;;;;15.83;10.60;;;11.30;94.10;;;;;;4948634;28;20506;-75
2021/10/31 07:17:57;;;;;;;14.07;10.27;;;11.30;93.90;;;;;;4955485;28;20451;-74
2021/10/31 07:20:24;;;;;;;21.40;10.73;;;11.30;93.70;;;;;;4956391;28;20518;-74
2021/10/31 07:22:52;;;;;;;16.90;10.00;;;11.30;93.60;;;;;;4955414;29;20860;-74
2021/10/31 07:25:20;;;;;;;13.27;9.90;;;11.30;93.50;;;;;;4956841;28;20530;-73
2021/10/31 07:27:46;;;;;;;17.03;10.20;;;11.40;93.60;;;;;;4952254;28;20461;-76
2021/10/31 07:30:12;;;;;;;14.97;10.63;;;11.40;93.40;;;;;;4952374;29;21038;-75
2021/10/31 07:32:38;;;;;;;18.27;11.17;;;11.40;93.10;;;;;;4950776;28;20184;-74
2021/10/31 07:35:06;;;;;;;20.20;11.23;;;11.40;93.20;;;;;;4948735;28;20549;-75
2021/10/31 07:37:32;;;;;;;14.13;9.30;;;11.50;93.30;;;;;;4952627;28;20555;-74
2021/10/31 07:39:59;;;;;;;15.83;9.73;;;11.50;93.10;;;;;;4947836;28;20903;-75
2021/10/31 07:42:28;;;;;;;17.23;10.93;;;11.60;93.00;;;;;;4953160;28;20769;-73
2021/10/31 07:44:55;;;;;;;18.83;10.97;;;11.70;93.00;;;;;;4952902;28;20455;-74
2021/10/31 07:47:21;;;;;;;15.90;10.70;;;11.80;92.90;;;;;;4954138;28;20830;-73
2021/10/31 07:49:46;;;;;;;13.30;10.90;;;11.80;92.90;;;;;;4953765;28;20482;-75
2021/10/31 07:52:12;;;;;;;17.20;11.93;;;11.80;92.70;;;;;;4953761;28;20553;-73
2021/10/31 07:54:38;;;;;;;17.50;11.23;;;11.80;92.70;;;;;;4953855;28;20266;-77
2021/10/31 07:57:05;;;;;;;17.33;11.23;;;11.70;92.70;;;;;;4953366;28;20229;-74
2021/10/31 07:59:31;;;;;;;15.23;10.20;;;11.80;92.80;;;;;;4952314;28;20462;-77
2021/10/31 08:01:56;;;;;;;21.00;12.03;;;11.90;92.60;;;;;;4955421;28;20843;-77
2021/10/31 08:04:23;;;;;;;19.20;12.30;;;11.90;92.40;;;;;;4953815;29;21036;-78
2021/10/31 08:06:49;;;;;;;15.13;10.63;;;11.90;92.40;;;;;;4950334;28;20622;-77
2021/10/31 08:09:15;;;;;;;22.73;12.37;;;12.00;92.40;;;;;;4954218;29;20506;-77
2021/10/31 08:11:44;;;;;;;17.10;12.90;;;12.10;92.20;;;;;;4951124;28;20915;-78
2021/10/31 08:14:10;;;;;;;21.07;12.60;;;12.10;91.90;;;;;;4953782;29;20820;-77
2021/10/31 08:16:37;;;;;;;21.57;12.57;;;12.20;91.90;;;;;;4955898;28;20471;-78
2021/10/31 08:19:04;;;;;;;17.87;11.53;;;12.20;91.90;;;;;;4955029;28;20470;-78
2021/10/31 08:21:30;;;;;;;18.27;11.50;;;12.20;91.80;;;;;;4960048;28;20423;-77
2021/10/31 08:23:56;;;;;;;14.17;10.43;;;12.30;91.60;;;;;;4955408;28;20567;-78
2021/10/31 08:26:23;;;;;;;17.70;12.83;;;12.40;91.50;;;;;;4950541;28;20936;-77
2021/10/31 08:28:50;;;;;;;18.30;12.47;;;12.40;91.50;;;;;;4950330;29;20591;-77
2021/10/31 08:31:27;;;;;;;18.50;13.17;;;12.40;91.70;;;;;;4952807;29;20802;-78
2021/10/31 08:33:57;;;;;;;18.03;11.60;;;12.50;91.60;;;;;;4952359;28;20451;-77
2021/10/31 08:36:24;;;;;;;19.03;11.50;;;12.50;91.30;;;;;;4955548;28;20513;-78
2021/10/31 08:38:49;;;;;;;16.70;11.60;;;12.60;91.20;;;;;;4946692;28;20491;-76
2021/10/31 08:41:21;;;;;;;19.20;12.10;;;12.70;90.90;;;;;;4953480;29;20895;-76
2021/10/31 08:43:49;;;;;;;18.93;12.70;;;12.80;90.90;;;;;;4945338;28;20239;-76
2021/10/31 08:46:16;;;;;;;32.73;13.80;;;12.80;90.60;;;;;;4953569;28;20435;-78
2021/10/31 08:48:42;;;;;;;18.57;12.33;;;12.90;90.50;;;;;;4954402;28;20412;-75
2021/10/31 08:51:08;;;;;;;17.87;11.90;;;12.80;90.30;;;;;;4950823;29;20427;-77
2021/10/31 08:53:35;;;;;;;21.20;12.97;;;12.90;90.40;;;;;;4944043;28;20428;-76
2021/10/31 08:56:01;;;;;;;19.30;10.10;;;12.90;90.30;;;;;;4948216;28;20495;-75
2021/10/31 08:58:27;;;;;;;10.20;5.73;;;13.00;90.40;;;;;;4954467;29;20419;-75
2021/10/31 09:00:53;;;;;;;9.60;6.27;;;13.10;90.20;;;;;;4953381;28;20435;-76
2021/10/31 09:03:20;;;;;;;8.30;5.67;;;13.30;89.90;;;;;;4951999;29;20435;-75
2021/10/31 09:05:45;;;;;;;9.17;5.77;;;13.30;89.00;;;;;;4953798;28;20453;-78
2021/10/31 09:08:11;;;;;;;10.63;6.63;;;13.40;88.60;;;;;;4952537;29;20654;-78
2021/10/31 09:10:38;;;;;;;12.80;6.90;;;13.40;88.70;;;;;;4952652;29;20203;-77
2021/10/31 09:13:05;;;;;;;8.50;5.90;;;13.40;88.40;;;;;;4948679;29;20462;-76
2021/10/31 09:15:31;;;;;;;13.07;7.20;;;13.50;88.30;;;;;;4953053;28;20475;-76
2021/10/31 09:18:02;;;;;;;9.50;5.53;;;13.70;87.70;;;;;;4949739;29;20471;-76
2021/10/31 09:20:28;;;;;;;8.70;6.10;;;13.80;86.60;;;;;;4951656;29;21002;-76
2021/10/31 09:22:59;;;;;;;7.97;5.70;;;13.90;85.90;;;;;;4955300;29;20465;-76
2021/10/31 09:25:26;;;;;;;10.23;5.70;;;13.90;85.90;;;;;;4953805;28;20478;-76
2021/10/31 09:27:54;;;;;;;7.07;5.00;;;14.00;85.70;;;;;;4956991;29;20432;-77
2021/10/31 09:30:21;;;;;;;8.13;5.40;;;14.10;85.70;;;;;;4954869;28;20448;-75
2021/10/31 09:32:49;;;;;;;7.20;4.90;;;14.20;85.60;;;;;;4957072;29;20423;-76
2021/10/31 09:35:21;;;;;;;9.00;6.20;;;14.40;84.70;;;;;;4953259;28;20471;-76
2021/10/31 09:37:50;;;;;;;5.80;4.60;;;14.50;84.10;;;;;;4954117;28;20471;-76
2021/10/31 09:40:16;;;;;;;8.03;5.70;;;14.60;83.00;;;;;;4952188;29;20514;-76
2021/10/31 09:42:42;;;;;;;9.70;5.47;;;14.70;83.10;;;;;;4953425;29;20452;-76
2021/10/31 09:45:09;;;;;;;9.80;5.93;;;14.70;83.10;;;;;;4948871;28;20455;-76
2021/10/31 09:47:35;;;;;;;6.13;4.57;;;14.80;83.10;;;;;;4955419;29;20493;-76
2021/10/31 09:50:01;;;;;;;8.47;5.33;;;14.90;83.10;;;;;;4957679;28;20431;-76
2021/10/31 09:52:28;;;;;;;6.10;4.80;;;15.00;82.70;;;;;;4956680;29;20460;-75
2021/10/31 09:54:55;;;;;;;7.80;4.60;;;15.00;82.70;;;;;;4954020;28;20875;-75
2021/10/31 09:57:22;;;;;;;5.53;4.40;;;15.10;82.20;;;;;;4956343;28;20471;-76
2021/10/31 09:59:54;;;;;;;5.90;4.30;;;15.20;81.80;;;;;;4952256;28;20809;-77
2021/10/31 10:05:24;;;;;;;7.30;4.83;;;15.50;80.50;;;;;;4952305;28;20446;-75
2021/10/31 10:08:10;;;;;;;8.40;5.20;;;15.60;80.30;;;;;;4956760;29;20426;-76
2021/10/31 10:10:51;;;;;;;6.93;4.90;;;15.70;80.00;;;;;;4940453;29;20429;-77
2021/10/31 10:13:28;;;;;;;6.07;4.50;;;15.80;79.90;;;;;;4956631;29;20451;-78
2021/10/31 10:16:26;;;;;;;16.53;9.50;;;15.90;79.60;;;;;;4954815;28;20444;-75
2021/10/31 10:18:52;;;;;;;9.20;5.87;;;16.30;78.30;;;;;;4952417;29;20423;-75
2021/10/31 10:21:22;;;;;;;8.87;4.73;;;16.70;76.20;;;;;;4948193;29;20942;-75
2021/10/31 10:24:02;;;;;;;6.00;4.80;;;17.30;73.60;;;;;;4953063;28;20435;-75
2021/10/31 10:26:48;;;;;;;8.03;5.00;;;17.90;73.20;;;;;;4945931;29;20911;-75
2021/10/31 10:29:29;;;;;;;6.20;4.77;;;18.30;69.90;;;;;;4948203;29;20493;-75
2021/10/31 10:32:01;;;;;;;7.73;5.30;;;18.70;69.20;;;;;;4948847;28;20441;-74
2021/10/31 10:34:42;;;;;;;9.60;4.47;;;19.20;67.30;;;;;;4954927;29;20448;-74
2021/10/31 10:37:14;;;;;;;6.40;4.10;;;19.40;66.60;;;;;;4950448;28;20466;-74
2021/10/31 10:39:42;;;;;;;7.07;4.80;;;19.90;65.30;;;;;;4952343;29;20506;-75
2021/10/31 10:42:09;;;;;;;6.53;4.80;;;20.30;64.20;;;;;;4949400;28;20499;-76
2021/10/31 10:44:37;;;;;;;6.10;4.07;;;20.60;63.80;;;;;;4952072;28;20487;-77
2021/10/31 10:47:18;;;;;;;5.93;3.73;;;21.10;62.80;;;;;;4951235;29;20507;-76
2021/10/31 10:49:44;;;;;;;5.10;3.73;;;21.60;58.90;;;;;;4947924;29;20426;-75
2021/10/31 10:52:20;;;;;;;5.30;4.07;;;21.90;59.10;;;;;;4953346;28;20931;-74
2021/10/31 10:54:49;;;;;;;6.23;4.00;;;22.20;57.70;;;;;;4946105;29;20507;-75
2021/10/31 10:57:16;;;;;;;5.33;4.33;;;22.00;57.80;;;;;;4946331;29;20479;-75
2021/10/31 10:59:42;;;;;;;6.57;4.43;;;22.00;57.60;;;;;;4950990;28;20928;-75
2021/10/31 11:02:16;;;;;;;5.90;3.70;;;21.90;58.00;;;;;;4951469;28;20430;-76
2021/10/31 11:04:50;;;;;;;5.30;3.90;;;21.60;58.40;;;;;;4949431;28;21016;-75
2021/10/31 11:07:16;;;;;;;5.10;3.57;;;21.30;60.00;;;;;;4951721;28;20448;-75
2021/10/31 11:09:45;;;;;;;5.27;3.83;;;20.90;60.00;;;;;;4950962;28;20425;-75
2021/10/31 11:12:25;;;;;;;6.70;3.80;;;20.50;61.50;;;;;;4952526;29;20467;-76
2021/10/31 11:14:52;;;;;;;8.20;4.33;;;20.30;61.30;;;;;;4949905;28;20936;-78
2021/10/31 11:17:20;;;;;;;5.27;3.80;;;20.20;61.70;;;;;;4953084;29;20518;-75
2021/10/31 11:19:46;;;;;;;5.17;3.80;;;20.30;62.30;;;;;;4953590;29;20434;-76
2021/10/31 11:22:16;;;;;;;6.87;3.80;;;20.50;63.10;;;;;;4951655;28;20426;-76
2021/10/31 11:24:47;;;;;;;5.60;3.60;;;20.80;62.00;;;;;;4952683;28;20457;-75
2021/10/31 11:27:22;;;;;;;4.60;3.47;;;21.20;60.90;;;;;;4948535;28;20811;-76
2021/10/31 11:29:48;;;;;;;3.80;2.77;;;21.30;58.80;;;;;;4949212;29;20434;-77
2021/10/31 11:32:16;;;;;;;4.63;3.03;;;21.20;57.30;;;;;;4953038;29;20492;-76
2021/10/31 11:34:49;;;;;;;3.20;2.40;;;21.50;56.40;;;;;;4953692;28;20441;-76
2021/10/31 11:37:19;;;;;;;3.30;3.20;;;21.30;51.80;;;;;;4953111;28;20480;-76
2021/10/31 11:39:46;;;;;;;4.30;2.30;;;21.30;52.00;;;;;;4955680;29;20448;-75
2021/10/31 11:42:14;;;;;;;3.70;2.90;;;21.30;52.10;;;;;;4952980;29;21104;-75
2021/10/31 11:45:14;;;;;;;3.90;2.83;;;21.50;51.40;;;;;;4953513;29;20936;-75
2021/10/31 11:47:43;;;;;;;2.70;2.20;;;21.90;51.30;;;;;;4949189;29;20434;-74
2021/10/31 11:50:18;;;;;;;3.93;2.50;;;22.10;49.40;;;;;;4953877;28;20536;-75
2021/10/31 11:52:59;;;;;;;2.93;2.53;;;22.40;48.60;;;;;;4952811;29;20490;-77
2021/10/31 11:55:28;;;;;;;4.23;3.03;;;22.60;48.90;;;;;;4953261;28;20607;-76
2021/10/31 11:58:02;;;;;;;6.23;2.90;;;22.90;49.10;;;;;;4953956;29;20970;-76
2021/10/31 12:00:29;;;;;;;4.10;2.83;;;23.10;48.70;;;;;;4944836;28;20561;-75
2021/10/31 12:03:04;;;;;;;5.10;3.00;;;23.20;48.20;;;;;;4952052;29;20586;-75
2021/10/31 12:05:39;;;;;;;4.00;2.70;;;23.20;47.90;;;;;;4937813;29;20533;-75
2021/10/31 12:08:06;;;;;;;2.97;2.60;;;23.20;47.50;;;;;;4953780;29;21000;-75
2021/10/31 12:10:52;;;;;;;3.20;2.63;;;23.20;47.10;;;;;;4953787;29;20516;-74
2021/10/31 12:13:22;;;;;;;4.00;3.03;;;23.40;46.70;;;;;;4951926;29;20430;-75
2021/10/31 12:15:58;;;;;;;3.00;2.50;;;23.60;46.20;;;;;;4952253;28;20968;-74
2021/10/31 12:18:49;;;;;;;5.07;3.10;;;23.50;45.90;;;;;;4952717;29;20454;-75
2021/10/31 12:21:29;;;;;;;5.97;3.10;;;23.50;47.10;;;;;;4946358;28;20509;-77
2021/10/31 12:23:58;;;;;;;8.50;5.13;;;23.50;46.30;;;;;;4950975;28;20451;-78
2021/10/31 12:26:26;;;;;;;4.73;3.23;;;23.50;47.00;;;;;;4953215;29;20517;-75
2021/10/31 12:29:08;;;;;;;6.93;3.13;;;23.60;47.30;;;;;;4952342;29;20800;-75
2021/10/31 12:31:34;;;;;;;3.97;2.97;;;23.90;45.70;;;;;;4947329;29;20472;-74
2021/10/31 12:34:38;;;;;;;3.30;2.97;;;24.00;45.50;;;;;;4954369;28;20473;-76
2021/10/31 12:37:23;;;;;;;3.10;2.73;;;24.10;45.70;;;;;;4941275;29;20214;-76
2021/10/31 12:39:57;;;;;;;5.20;3.33;;;24.20;44.20;;;;;;4955602;29;20995;-75
2021/10/31 12:42:46;;;;;;;3.17;2.53;;;24.40;44.20;;;;;;4954185;29;20428;-76
2021/10/31 12:45:16;;;;;;;5.10;2.77;;;24.40;44.20;;;;;;4953228;28;20454;-77
2021/10/31 12:47:54;;;;;;;5.07;3.27;;;24.40;43.80;;;;;;4954131;29;20847;-78
2021/10/31 12:50:46;;;;;;;3.87;2.87;;;24.30;44.50;;;;;;4953435;29;20442;-75
2021/10/31 12:53:14;;;;;;;3.80;2.87;;;24.30;45.40;;;;;;4955823;28;21275;-76
2021/10/31 12:55:43;;;;;;;3.73;3.10;;;24.50;44.70;;;;;;4950544;28;20454;-74
2021/10/31 12:58:11;;;;;;;3.90;2.90;;;24.60;43.70;;;;;;4952683;29;20458;-77